sensor_id;sensor_type;location;lat;lon;timestamp;temperature;humidity
27870;DHT22;15225;50.730;4.244;2023-08-07T20:02:21;17.90;38.30
27870;DHT22;15225;50.730;4.244;2023-08-07T20:04:47;17.30;67.60
27870;DHT22;15225;50.730;4.244;2023-08-07T20:07:13;17.60;1.00
27870;DHT22;15225;50.730;4.244;2023-08-07T20:09:38;18.10;99.90
27870;DHT22;15225;50.730;4.244;2023-08-07T20:12:05;18.60;1.00
27870;DHT22;15225;50.730;4.244;2023-08-07T20:14:32;19.00;99.90
27870;DHT22;15225;50.730;4.244;2023-08-07T20:16:58;19.30;1.00
27870;DHT22;15225;50.730;4.244;2023-08-07T20:19:24;19.40;1.00
27870;DHT22;15225;50.730;4.244;2023-08-07T20:21:49;19.60;99.90
27870;DHT22;15225;50.730;4.244;2023-08-07T20:24:16;19.60;1.00
27870;DHT22;15225;50.730;4.244;2023-08-07T20:26:41;19.60;99.90
27870;DHT22;15225;50.730;4.244;2023-08-07T20:29:07;19.50;99.90
27870;DHT22;15225;50.730;4.244;2023-08-07T20:31:33;19.60;45.40
27870;DHT22;15225;50.730;4.244;2023-08-07T20:33:58;19.60;99.90
27870;DHT22;15225;50.730;4.244;2023-08-07T20:36:26;19.70;99.90
27870;DHT22;15225;50.730;4.244;2023-08-07T20:38:56;19.50;99.90
27870;DHT22;15225;50.730;4.244;2023-08-07T20:41:22;19.40;99.90
27870;DHT22;15225;50.730;4.244;2023-08-07T20:43:48;19.40;99.90
27870;DHT22;15225;50.730;4.244;2023-08-07T20:46:14;19.40;99.90
27870;DHT22;15225;50.730;4.244;2023-08-07T20:48:42;19.30;99.90
27870;DHT22;15225;50.730;4.244;2023-08-07T20:51:09;19.20;99.90
27870;DHT22;15225;50.730;4.244;2023-08-07T20:53:35;19.10;99.90
27870;DHT22;15225;50.730;4.244;2023-08-07T20:56:01;19.30;99.90
27870;DHT22;15225;50.730;4.244;2023-08-07T20:58:26;19.30;1.00
27870;DHT22;15225;50.730;4.244;2023-08-07T21:00:52;19.30;1.00
27870;DHT22;15225;50.730;4.244;2023-08-07T21:03:18;19.30;99.90
27870;DHT22;15225;50.730;4.244;2023-08-07T21:05:44;19.20;1.00
27870;DHT22;15225;50.730;4.244;2023-08-07T21:08:09;19.00;99.90
27870;DHT22;15225;50.730;4.244;2023-08-07T21:10:35;19.00;99.90
27870;DHT22;15225;50.730;4.244;2023-08-07T21:13:01;19.10;1.00
27870;DHT22;15225;50.730;4.244;2023-08-07T21:15:27;19.00;43.30
27870;DHT22;15225;50.730;4.244;2023-08-07T21:17:52;18.80;97.80
27870;DHT22;15225;50.730;4.244;2023-08-07T21:20:18;18.60;99.90
27870;DHT22;15225;50.730;4.244;2023-08-07T21:22:44;18.60;99.90
27870;DHT22;15225;50.730;4.244;2023-08-07T21:25:09;18.60;99.90
27870;DHT22;15225;50.730;4.244;2023-08-07T21:27:35;18.30;99.90
27870;DHT22;15225;50.730;4.244;2023-08-07T21:30:01;18.30;1.00
27870;DHT22;15225;50.730;4.244;2023-08-07T21:32:28;18.40;99.90
27870;DHT22;15225;50.730;4.244;2023-08-07T21:34:53;18.40;99.90
27870;DHT22;15225;50.730;4.244;2023-08-07T21:37:19;18.40;1.00
27870;DHT22;15225;50.730;4.244;2023-08-07T21:39:46;18.60;99.90
27870;DHT22;15225;50.730;4.244;2023-08-07T21:42:12;18.50;61.40
27870;DHT22;15225;50.730;4.244;2023-08-07T21:44:38;18.40;99.90
27870;DHT22;15225;50.730;4.244;2023-08-07T21:47:04;18.40;99.90
27870;DHT22;15225;50.730;4.244;2023-08-07T21:49:29;18.40;99.90
27870;DHT22;15225;50.730;4.244;2023-08-07T21:51:56;18.20;99.90
27870;DHT22;15225;50.730;4.244;2023-08-07T21:54:21;18.20;99.90
27870;DHT22;15225;50.730;4.244;2023-08-07T21:56:47;18.20;62.90
27870;DHT22;15225;50.730;4.244;2023-08-07T21:59:13;18.30;99.00
27870;DHT22;15225;50.730;4.244;2023-08-07T22:01:38;18.20;1.00
27870;DHT22;15225;50.730;4.244;2023-08-07T22:04:04;18.20;99.90
27870;DHT22;15225;50.730;4.244;2023-08-07T22:06:30;18.10;1.00
27870;DHT22;15225;50.730;4.244;2023-08-07T22:08:56;18.00;99.90
27870;DHT22;15225;50.730;4.244;2023-08-07T22:11:22;17.80;14.20
27870;DHT22;15225;50.730;4.244;2023-08-07T22:13:48;17.80;33.90
